Time;durP1;ratioP1;P1;durP2;ratioP2;P2;SDS_P1;SDS_P2;PMS_P1;PMS_P2;Temp;Humidity;BMP_temperature;BMP_pressure;BME280_temperature;BME280_humidity;BME280_pressure;Samples;Min_cycle;Max_cycle;Signal;HPM_P1;HPM_P2
2021/12/02 00:01:58;;;;;;;34.27;21.13;;;;;;;4.63;79.60;99172.47;5092532;28;20264;-71
2021/12/02 00:04:26;;;;;;;33.43;20.33;;;;;;;4.66;79.76;99172.13;5092411;28;20199;-71
2021/12/02 00:06:53;;;;;;;35.20;21.10;;;;;;;4.62;79.98;99170.81;5092205;28;20193;-71
2021/12/02 00:09:20;;;;;;;35.53;20.90;;;;;;;4.50;78.74;99166.88;5092201;28;20198;-71
2021/12/02 00:11:47;;;;;;;35.53;21.20;;;;;;;4.51;79.92;99178.22;5091882;28;20199;-71
2021/12/02 00:14:22;;;;;;;31.97;20.57;;;;;;;4.47;79.78;99172.50;5091744;28;20662;-71
2021/12/02 00:17:03;;;;;;;35.30;20.47;;;;;;;4.49;79.36;99186.28;5092417;28;20202;-71
2021/12/02 00:22:14;;;;;;;33.43;21.23;;;;;;;4.52;78.90;99191.22;5092723;28;20237;-70
2021/12/02 00:24:46;;;;;;;36.00;20.37;;;;;;;4.37;80.01;99192.84;5092594;28;20195;-70
2021/12/02 00:27:14;;;;;;;39.73;21.80;;;;;;;4.27;80.11;99196.63;5092665;28;20229;-70
2021/12/02 00:29:46;;;;;;;33.17;20.37;;;;;;;4.30;80.83;99197.13;5091989;28;20187;-70
2021/12/02 00:32:13;;;;;;;36.77;22.30;;;;;;;4.28;79.67;99199.09;5092286;28;20183;-69
2021/12/02 00:34:43;;;;;;;40.80;21.30;;;;;;;4.27;79.37;99207.16;5092025;28;20223;-70
2021/12/02 00:37:11;;;;;;;39.83;22.07;;;;;;;4.16;80.67;99204.81;5092476;28;20179;-70
2021/12/02 00:39:38;;;;;;;42.90;24.60;;;;;;;4.12;79.92;99193.81;5091917;28;20260;-70
2021/12/02 00:42:05;;;;;;;42.43;23.30;;;;;;;4.04;80.31;99199.06;5093855;28;20191;-70
2021/12/02 00:44:32;;;;;;;41.47;23.00;;;;;;;4.02;81.58;99193.16;5095328;28;20191;-69
2021/12/02 00:47:02;;;;;;;36.33;21.43;;;;;;;4.02;81.27;99197.59;5095271;28;20951;-70
2021/12/02 00:49:30;;;;;;;40.23;22.33;;;;;;;3.98;80.55;99197.09;5096395;28;20616;-70
2021/12/02 00:51:59;;;;;;;43.97;22.87;;;;;;;3.96;80.50;99188.53;5095520;28;20425;-70
2021/12/02 00:54:27;;;;;;;48.33;22.93;;;;;;;3.94;82.07;99181.81;5095368;28;20222;-70
2021/12/02 00:56:55;;;;;;;44.87;23.50;;;;;;;4.00;82.54;99181.97;5096225;28;20194;-70
2021/12/02 00:59:23;;;;;;;43.33;24.43;;;;;;;3.96;82.53;99178.03;5095341;28;20501;-70
2021/12/02 01:01:51;;;;;;;41.47;23.93;;;;;;;4.03;81.48;99180.84;5095865;28;20207;-70
2021/12/02 01:04:23;;;;;;;44.87;25.27;;;;;;;4.10;81.49;99173.94;5095290;28;20195;-71
2021/12/02 01:06:51;;;;;;;43.60;24.80;;;;;;;4.14;81.27;99186.63;5094953;28;20498;-71
2021/12/02 01:09:18;;;;;;;46.63;24.90;;;;;;;4.15;81.04;99174.28;5095732;28;20241;-71
2021/12/02 01:11:44;;;;;;;54.03;24.80;;;;;;;4.14;80.88;99183.16;5095349;28;20448;-71
2021/12/02 01:14:12;;;;;;;43.93;25.67;;;;;;;4.06;81.56;99178.72;5095009;28;20280;-71
2021/12/02 01:16:40;;;;;;;52.50;26.53;;;;;;;4.02;81.97;99177.41;5095569;28;20445;-71
2021/12/02 01:19:09;;;;;;;47.10;25.40;;;;;;;3.97;82.08;99173.63;5094648;28;20731;-70
2021/12/02 01:21:39;;;;;;;57.13;25.77;;;;;;;3.97;82.22;99173.63;5095465;28;20187;-70
2021/12/02 01:24:08;;;;;;;51.23;25.83;;;;;;;3.94;82.84;99174.75;5095779;28;20187;-70
2021/12/02 01:26:36;;;;;;;52.00;24.97;;;;;;;3.86;82.28;99161.63;5094764;28;20285;-70
2021/12/02 01:29:04;;;;;;;53.10;24.77;;;;;;;3.83;82.15;99161.94;5094482;28;20186;-70
2021/12/02 01:31:33;;;;;;;50.73;24.63;;;;;;;3.71;82.03;99147.47;5094478;28;20194;-71
2021/12/02 01:34:02;;;;;;;41.93;22.47;;;;;;;3.70;82.40;99158.94;5094635;28;20487;-71
2021/12/02 01:36:33;;;;;;;39.47;20.97;;;;;;;3.72;81.89;99159.59;5094336;28;20655;-71
2021/12/02 01:39:03;;;;;;;37.73;20.60;;;;;;;3.67;82.58;99163.69;5095468;28;20778;-70
2021/12/02 01:41:37;;;;;;;36.57;20.27;;;;;;;3.66;83.16;99160.25;5095377;28;20195;-70
2021/12/02 01:44:10;;;;;;;36.90;19.80;;;;;;;3.65;82.55;99152.53;5094254;28;20487;-69
2021/12/02 01:46:38;;;;;;;33.77;18.53;;;;;;;3.46;82.42;99153.63;5094507;28;20240;-69
2021/12/02 01:49:05;;;;;;;30.60;16.53;;;;;;;3.34;83.24;99164.56;5094702;28;20463;-69
2021/12/02 01:51:37;;;;;;;28.30;17.43;;;;;;;3.28;83.31;99159.97;5094049;28;20433;-69
2021/12/02 01:54:08;;;;;;;25.47;16.00;;;;;;;3.14;84.39;99171.88;5094565;28;20535;-69
2021/12/02 01:56:42;;;;;;;27.67;16.07;;;;;;;3.09;84.66;99182.03;5095127;28;20425;-69
2021/12/02 01:59:12;;;;;;;25.83;15.03;;;;;;;3.11;83.96;99169.56;5095120;28;20429;-69
2021/12/02 02:01:42;;;;;;;27.13;14.47;;;;;;;2.82;84.28;99142.03;5094178;28;20433;-70
2021/12/02 02:04:09;;;;;;;23.67;14.37;;;;;;;2.93;85.35;99171.44;5094986;28;20502;-69
2021/12/02 02:06:40;;;;;;;20.53;14.27;;;;;;;2.91;85.69;99168.16;5093801;28;21002;-69
2021/12/02 02:09:09;;;;;;;21.50;13.33;;;;;;;3.02;85.40;99164.44;5094058;28;20516;-69
2021/12/02 02:11:36;;;;;;;20.27;13.90;;;;;;;3.08;84.09;99166.44;5094045;28;20867;-68
2021/12/02 02:14:06;;;;;;;18.43;13.63;;;;;;;3.11;83.99;99169.56;5084877;28;20477;-68
2021/12/02 02:16:33;;;;;;;18.10;13.10;;;;;;;3.14;83.54;99164.00;5073913;28;20467;-69
2021/12/02 02:18:59;;;;;;;21.20;13.87;;;;;;;3.20;83.03;99165.19;5092969;28;20441;-69
2021/12/02 02:21:28;;;;;;;25.17;14.97;;;;;;;3.17;82.63;99163.69;5093749;28;20441;-69
2021/12/02 02:23:58;;;;;;;24.03;15.90;;;;;;;3.21;83.38;99169.44;5093381;28;21023;-70
2021/12/02 02:26:27;;;;;;;21.97;14.13;;;;;;;3.25;83.44;99171.59;5093886;28;20477;-70
2021/12/02 02:28:54;;;;;;;23.13;13.37;;;;;;;3.30;83.96;99171.94;5093307;28;20433;-70
2021/12/02 02:31:21;;;;;;;24.03;13.20;;;;;;;3.31;83.55;99170.16;5093589;28;20532;-70
2021/12/02 02:33:49;;;;;;;22.37;12.97;;;;;;;3.29;83.29;99172.94;5093511;28;20473;-70
2021/12/02 02:36:18;;;;;;;20.43;12.70;;;;;;;3.22;84.13;99171.91;5093408;28;20454;-70
2021/12/02 02:38:55;;;;;;;16.87;11.70;;;;;;;3.24;85.03;99169.97;5093090;28;20809;-70
2021/12/02 02:41:23;;;;;;;20.00;11.13;;;;;;;3.31;84.39;99155.22;5093722;28;20509;-70
2021/12/02 02:43:52;;;;;;;19.90;11.37;;;;;;;3.34;82.88;99154.91;5093086;28;20886;-71
2021/12/02 02:46:23;;;;;;;15.50;10.93;;;;;;;3.38;83.88;99150.97;5093003;28;20443;-71
2021/12/02 02:48:50;;;;;;;14.17;10.97;;;;;;;3.43;83.55;99159.19;5092931;28;20441;-71
2021/12/02 02:51:17;;;;;;;21.37;12.20;;;;;;;3.50;83.08;99160.22;5093194;28;20187;-71
2021/12/02 02:53:43;;;;;;;15.63;11.17;;;;;;;3.50;83.82;99165.47;5092773;28;21070;-71
2021/12/02 02:56:14;;;;;;;18.63;11.10;;;;;;;3.49;83.05;99170.88;5093133;28;20505;-71
2021/12/02 02:58:57;;;;;;;11.63;10.20;;;;;;;3.55;83.76;99173.66;5092792;28;20444;-71
2021/12/02 03:01:34;;;;;;;15.33;11.03;;;;;;;3.61;83.96;99177.47;5094163;28;20444;-71
2021/12/02 03:04:08;;;;;;;14.57;10.83;;;;;;;3.58;83.17;99175.16;5092482;28;20441;-70
2021/12/02 03:06:40;;;;;;;12.90;10.37;;;;;;;3.65;84.00;99174.38;5093339;28;20468;-70
2021/12/02 03:09:12;;;;;;;15.70;10.13;;;;;;;3.64;83.44;99172.72;5093241;28;20528;-70
2021/12/02 03:11:44;;;;;;;12.10;10.23;;;;;;;3.69;83.56;99188.84;5093461;28;20429;-70
2021/12/02 03:14:17;;;;;;;18.33;11.63;;;;;;;3.75;83.49;99189.97;5092508;28;20983;-69
2021/12/02 03:16:46;;;;;;;22.53;11.87;;;;;;;3.78;82.10;99182.59;5092544;28;20528;-70
2021/12/02 03:19:14;;;;;;;18.37;11.37;;;;;;;3.83;82.24;99192.63;5092428;28;20199;-71
2021/12/02 03:21:41;;;;;;;11.43;9.90;;;;;;;3.91;81.71;99193.47;5092709;28;20437;-71
2021/12/02 03:24:08;;;;;;;13.70;10.73;;;;;;;3.95;82.05;99202.66;5092422;28;20437;-71
2021/12/02 03:26:35;;;;;;;15.50;9.43;;;;;;;3.96;81.43;99201.69;5092812;28;20508;-71
2021/12/02 03:29:05;;;;;;;10.10;9.13;;;;;;;3.82;82.50;99194.44;5092607;28;20436;-71
2021/12/02 03:31:33;;;;;;;12.03;9.93;;;;;;;3.78;82.51;99182.59;5092291;28;20191;-70
2021/12/02 03:34:03;;;;;;;9.77;8.70;;;;;;;3.84;82.36;99178.53;5092072;28;20473;-70
2021/12/02 03:36:30;;;;;;;11.47;9.10;;;;;;;3.88;82.24;99185.09;5092205;28;20439;-70
2021/12/02 03:38:57;;;;;;;14.57;9.93;;;;;;;3.96;82.53;99190.38;5093015;28;20569;-69
2021/12/02 03:41:24;;;;;;;19.30;10.93;;;;;;;3.99;81.71;99182.13;5092993;28;20498;-69
2021/12/02 03:43:52;;;;;;;13.00;11.53;;;;;;;3.92;81.04;99184.59;5092083;28;20195;-70
2021/12/02 03:46:22;;;;;;;20.90;11.67;;;;;;;3.93;81.51;99194.13;5092080;28;20252;-71
2021/12/02 03:48:49;;;;;;;27.27;16.10;;;;;;;3.94;80.64;99195.78;5092925;28;20260;-70
2021/12/02 03:51:17;;;;;;;13.77;11.03;;;;;;;3.93;80.92;99199.38;5092359;28;20444;-70
2021/12/02 03:53:44;;;;;;;13.90;10.80;;;;;;;3.89;80.97;99177.03;5092280;28;20191;-70
2021/12/02 03:56:11;;;;;;;16.60;10.57;;;;;;;3.92;80.88;99187.22;5092304;28;20327;-71
2021/12/02 03:58:41;;;;;;;25.17;11.13;;;;;;;3.89;80.14;99184.91;5091949;28;21017;-71
2021/12/02 04:01:08;;;;;;;19.27;11.27;;;;;;;3.86;80.76;99182.63;5092303;28;20502;-71
2021/12/02 04:03:37;;;;;;;21.50;12.30;;;;;;;3.80;80.77;99172.75;5092778;28;20252;-71
2021/12/02 04:06:06;;;;;;;20.83;12.37;;;;;;;3.81;80.35;99179.66;5092438;28;20421;-70
2021/12/02 04:08:40;;;;;;;16.07;11.57;;;;;;;3.77;81.00;99186.22;5092139;28;20213;-70
2021/12/02 04:11:19;;;;;;;17.47;11.80;;;;;;;3.71;80.97;99192.09;5092757;28;20464;-71
2021/12/02 04:13:54;;;;;;;20.10;11.43;;;;;;;3.69;81.98;99194.09;5092333;28;20440;-71
2021/12/02 04:16:22;;;;;;;18.07;12.70;;;;;;;3.68;81.05;99189.78;5093602;28;20505;-71
2021/12/02 04:18:50;;;;;;;21.53;11.33;;;;;;;3.67;81.00;99188.16;5096037;28;20648;-70
2021/12/02 04:21:17;;;;;;;22.13;12.57;;;;;;;3.58;81.48;99197.00;5096873;28;20428;-70
2021/12/02 04:23:44;;;;;;;21.13;12.97;;;;;;;3.56;82.26;99180.56;5096563;28;20433;-70
2021/12/02 04:26:11;;;;;;;17.93;12.27;;;;;;;3.52;81.63;99176.59;5095977;28;20530;-70
2021/12/02 04:28:37;;;;;;;17.20;13.23;;;;;;;3.42;82.46;99162.81;5096518;28;20494;-70
2021/12/02 04:31:04;;;;;;;18.50;13.13;;;;;;;3.46;83.00;99173.78;5095508;28;20437;-70
2021/12/02 04:33:32;;;;;;;19.30;13.17;;;;;;;3.45;82.08;99178.25;5096137;28;20191;-70
2021/12/02 04:36:00;;;;;;;23.83;13.00;;;;;;;3.46;81.70;99169.38;5095952;28;20498;-70
2021/12/02 04:38:27;;;;;;;25.33;15.67;;;;;;;3.46;81.98;99173.78;5095707;28;20432;-70
2021/12/02 04:40:54;;;;;;;30.33;16.30;;;;;;;3.41;81.85;99176.91;5095348;28;20949;-70
2021/12/02 04:43:21;;;;;;;25.13;14.67;;;;;;;3.23;83.42;99175.38;5095342;28;20199;-70
2021/12/02 04:45:48;;;;;;;20.00;14.83;;;;;;;3.00;84.21;99180.34;5095558;28;20444;-70
2021/12/02 04:48:15;;;;;;;24.67;14.20;;;;;;;2.87;85.56;99179.09;5095499;28;20440;-70
2021/12/02 04:50:42;;;;;;;25.27;14.47;;;;;;;2.93;86.29;99187.19;5095148;28;20187;-71
2021/12/02 04:53:11;;;;;;;25.27;14.93;;;;;;;2.98;85.93;99184.91;5095369;28;20433;-70
2021/12/02 04:55:38;;;;;;;29.27;14.90;;;;;;;3.05;84.69;99180.69;5096066;28;20472;-70
2021/12/02 04:58:04;;;;;;;34.07;16.40;;;;;;;3.12;84.99;99180.88;5095191;28;20436;-70
2021/12/02 05:00:32;;;;;;;28.63;16.40;;;;;;;3.12;84.47;99175.63;5094953;28;20941;-70
2021/12/02 05:02:59;;;;;;;32.33;15.53;;;;;;;3.08;83.57;99179.56;5095567;28;20441;-71
2021/12/02 05:05:26;;;;;;;25.70;15.47;;;;;;;3.12;83.87;99178.25;5094925;28;20956;-71
2021/12/02 05:07:54;;;;;;;34.03;15.27;;;;;;;3.15;83.57;99176.13;5089521;28;20445;-72
2021/12/02 05:10:22;;;;;;;28.63;16.90;;;;;;;3.17;83.92;99179.44;5082070;28;20450;-70
2021/12/02 05:12:50;;;;;;;28.97;15.47;;;;;;;3.18;82.88;99186.31;5091108;28;20869;-71
2021/12/02 05:15:17;;;;;;;40.03;24.97;;;;;;;2.94;84.35;99188.00;5094276;28;20561;-71
2021/12/02 05:17:43;;;;;;;31.97;20.87;;;;;;;2.97;85.60;99187.69;5094537;28;21013;-70
2021/12/02 05:20:11;;;;;;;36.87;20.30;;;;;;;3.00;84.56;99193.44;5094775;28;20502;-71
2021/12/02 05:22:39;;;;;;;36.30;22.60;;;;;;;2.97;84.55;99188.50;5095112;28;20517;-70
2021/12/02 05:25:07;;;;;;;29.17;19.70;;;;;;;2.94;85.10;99194.06;5094357;28;20441;-70
2021/12/02 05:27:35;;;;;;;44.23;22.87;;;;;;;2.92;85.74;99189.94;5093833;28;20498;-70
2021/12/02 05:30:03;;;;;;;50.40;30.33;;;;;;;2.99;86.05;99197.03;5093313;28;20832;-72
2021/12/02 05:32:30;;;;;;;38.13;25.90;;;;;;;3.07;86.30;99183.97;5092405;28;20960;-72
2021/12/02 05:34:57;;;;;;;38.00;21.90;;;;;;;3.16;85.21;99192.72;5091678;28;20472;-71
2021/12/02 05:37:24;;;;;;;64.50;24.90;;;;;;;3.19;84.54;99193.22;5092448;28;20449;-71
2021/12/02 05:39:51;;;;;;;47.87;22.13;;;;;;;3.26;84.77;99185.53;5092438;28;20445;-71
2021/12/02 05:42:18;;;;;;;29.90;19.83;;;;;;;3.33;84.16;99200.50;5092129;28;21088;-71
2021/12/02 05:44:46;;;;;;;36.60;20.13;;;;;;;3.35;84.89;99198.53;5093449;28;20477;-69
2021/12/02 05:47:13;;;;;;;47.23;22.43;;;;;;;3.41;84.06;99197.91;5094305;28;20507;-69
2021/12/02 05:49:41;;;;;;;36.50;21.17;;;;;;;3.49;83.76;99200.56;5093977;28;20498;-69
2021/12/02 05:52:08;;;;;;;36.37;19.80;;;;;;;3.56;83.10;99200.75;5094253;28;20437;-70
2021/12/02 05:54:35;;;;;;;44.57;21.93;;;;;;;3.64;82.53;99208.66;5093696;28;20472;-70
2021/12/02 05:57:02;;;;;;;36.77;19.47;;;;;;;3.70;83.37;99208.84;5094199;28;20494;-70
2021/12/02 05:59:28;;;;;;;31.17;17.40;;;;;;;3.82;82.75;99202.31;5093804;28;20994;-70
2021/12/02 06:01:56;;;;;;;37.07;20.03;;;;;;;3.92;81.09;99205.63;5087018;28;20433;-68
2021/12/02 06:04:23;;;;;;;42.50;18.33;;;;;;;3.96;81.51;99204.31;5073634;28;20446;-70
2021/12/02 06:06:50;;;;;;;44.73;24.33;;;;;;;3.91;81.16;99196.09;5076151;28;20195;-70
2021/12/02 06:09:19;;;;;;;250.30;99.17;;;;;;;4.06;81.95;99198.91;5084124;28;20191;-74
2021/12/02 06:11:46;;;;;;;137.37;56.90;;;;;;;4.26;81.86;99201.09;5079468;28;20626;-69
2021/12/02 06:14:13;;;;;;;53.93;26.93;;;;;;;4.44;81.14;99204.38;5063875;28;20670;-73
2021/12/02 06:16:40;;;;;;;220.17;124.70;;;;;;;4.59;80.69;99204.53;5076801;28;20280;-71
2021/12/02 06:19:08;;;;;;;68.90;41.07;;;;;;;4.79;77.58;99211.88;5085004;28;20224;-71
2021/12/02 06:21:35;;;;;;;56.20;36.23;;;;;;;5.04;78.49;99207.44;5094257;28;20624;-68
2021/12/02 06:24:04;;;;;;;50.10;31.33;;;;;;;5.29;77.13;99212.47;5092373;28;20895;-77
2021/12/02 06:26:31;;;;;;;42.90;26.63;;;;;;;5.56;76.11;99219.13;5091990;28;20375;-72
2021/12/02 06:28:57;;;;;;;36.80;20.23;;;;;;;5.84;75.50;99228.22;5092033;28;20195;-73
2021/12/02 06:31:25;;;;;;;35.97;23.87;;;;;;;6.12;73.53;99220.66;5092606;28;20612;-73
2021/12/02 06:33:51;;;;;;;29.77;17.40;;;;;;;6.62;78.54;99211.19;5088855;28;20294;-70
2021/12/02 06:36:19;;;;;;;44.47;22.87;;;;;;;7.00;71.65;99227.88;5092025;28;20280;-71
2021/12/02 06:38:46;;;;;;;58.23;22.70;;;;;;;7.23;69.79;99228.63;5093099;28;20199;-72
2021/12/02 06:41:13;;;;;;;43.23;21.20;;;;;;;7.48;67.29;99230.81;5092802;28;20681;-71
2021/12/02 06:43:40;;;;;;;40.77;23.37;;;;;;;7.58;67.87;99217.31;5092053;28;20192;-71
2021/12/02 06:46:06;;;;;;;29.67;21.20;;;;;;;7.61;67.93;99216.97;5073031;28;20198;-72
2021/12/02 06:48:33;;;;;;;37.83;23.23;;;;;;;7.74;67.40;99214.47;5077537;28;20194;-71
2021/12/02 06:51:00;;;;;;;44.73;23.63;;;;;;;8.01;66.28;99213.78;5092197;28;20246;-70
2021/12/02 06:53:28;;;;;;;43.67;23.67;;;;;;;8.30;65.88;99219.03;5088944;28;20193;-71
2021/12/02 06:55:54;;;;;;;62.73;25.23;;;;;;;8.57;65.60;99212.97;5092788;28;20219;-73
2021/12/02 06:58:21;;;;;;;30.50;19.90;;;;;;;8.84;65.38;99217.47;5091433;28;20242;-70
2021/12/02 07:00:48;;;;;;;20.87;13.93;;;;;;;9.52;80.36;99191.03;5088435;28;20248;-75
2021/12/02 07:03:15;;;;;;;39.43;20.80;;;;;;;10.46;68.07;99222.81;5090118;28;20187;-68
2021/12/02 07:05:41;;;;;;;33.83;18.93;;;;;;;10.86;64.37;99229.78;5081126;28;20199;-71
2021/12/02 07:08:08;;;;;;;39.97;17.27;;;;;;;11.06;69.70;99212.00;5080294;28;20194;-72
2021/12/02 07:10:36;;;;;;;69.83;28.53;;;;;;;11.40;57.37;99229.56;5092746;28;20195;-70
2021/12/02 07:13:03;;;;;;;74.00;32.27;;;;;;;11.16;54.71;99230.19;5079448;28;20203;-71
2021/12/02 07:15:31;;;;;;;54.00;26.00;;;;;;;11.31;59.00;99213.00;5072000;28;20703;-72
2021/12/02 07:18:00;;;;;;;39.80;20.70;;;;;;;11.78;54.37;99231.31;5072234;28;20576;-70
2021/12/02 07:20:30;;;;;;;30.87;18.63;;;;;;;12.06;50.12;99239.81;5089520;28;20276;-68
2021/12/02 07:22:57;;;;;;;34.57;14.93;;;;;;;12.06;52.35;99234.50;5070926;28;20523;-69
2021/12/02 07:25:24;;;;;;;20.60;14.00;;;;;;;12.15;61.81;99216.41;5070177;28;20240;-72
2021/12/02 07:27:52;;;;;;;23.23;14.97;;;;;;;13.03;58.65;99226.94;5070676;28;20265;-67
2021/12/02 07:30:19;;;;;;;21.10;14.20;;;;;;;13.59;46.70;99244.44;5070049;28;20190;-71
2021/12/02 07:32:48;;;;;;;24.03;16.23;;;;;;;13.79;45.58;99241.56;5070444;28;20653;-71
2021/12/02 07:35:16;;;;;;;23.80;17.57;;;;;;;13.85;45.58;99241.47;5082986;28;20221;-72
2021/12/02 07:37:46;;;;;;;41.90;18.73;;;;;;;13.94;44.05;99242.00;5080627;28;20200;-70
2021/12/02 07:40:13;;;;;;;28.00;16.87;;;;;;;13.75;44.12;99254.53;5077079;28;20604;-67
2021/12/02 07:42:40;;;;;;;65.13;30.93;;;;;;;13.21;45.30;99240.31;5092067;28;20249;-68
2021/12/02 07:45:10;;;;;;;62.50;31.77;;;;;;;12.88;47.80;99229.91;5080623;28;20748;-68
2021/12/02 07:47:40;;;;;;;33.33;19.13;;;;;;;12.52;50.62;99224.41;5079776;28;20190;-67
2021/12/02 07:50:09;;;;;;;49.10;23.60;;;;;;;13.01;51.07;99219.16;5091977;28;20657;-68
2021/12/02 07:52:40;;;;;;;30.00;18.90;;;;;;;13.42;46.56;99222.06;5090709;28;20247;-70
2021/12/02 07:55:08;;;;;;;23.10;16.40;;;;;;;13.65;44.44;99227.56;5092285;28;20179;-69
2021/12/02 07:57:35;;;;;;;30.50;16.43;;;;;;;13.56;45.06;99220.88;5091897;28;20198;-71
2021/12/02 08:00:03;;;;;;;30.40;20.27;;;;;;;13.98;45.13;99222.66;5091956;28;20197;-69
2021/12/02 08:02:35;;;;;;;29.77;21.90;;;;;;;14.56;45.09;99215.72;5090723;28;20858;-68
2021/12/02 08:05:02;;;;;;;29.20;21.23;;;;;;;14.99;42.36;99216.25;5093024;28;20191;-69
2021/12/02 08:07:29;;;;;;;37.40;23.00;;;;;;;15.27;42.31;99211.06;5090452;28;20207;-70
2021/12/02 08:09:56;;;;;;;33.27;22.57;;;;;;;15.53;41.50;99215.94;5083143;28;20198;-69
2021/12/02 08:12:23;;;;;;;41.63;21.13;;;;;;;15.51;39.90;99210.03;5101965;28;20256;-71
2021/12/02 08:14:50;;;;;;;30.80;20.43;;;;;;;15.51;40.00;99202.00;5091852;28;20655;-70
2021/12/02 08:17:17;;;;;;;36.07;21.00;;;;;;;15.49;41.09;99206.75;5091498;28;20771;-68
2021/12/02 08:19:45;;;;;;;50.20;20.97;;;;;;;15.38;40.88;99204.94;5091482;28;20191;-69
2021/12/02 08:22:12;;;;;;;92.17;25.40;;;;;;;15.43;40.57;99207.72;5091619;28;20195;-69
2021/12/02 08:24:39;;;;;;;49.77;22.07;;;;;;;15.48;40.63;99207.81;5091448;28;20195;-68
2021/12/02 08:27:07;;;;;;;42.53;20.73;;;;;;;15.34;40.47;99209.13;5092458;28;20227;-68
2021/12/02 08:29:33;;;;;;;28.20;20.00;;;;;;;14.83;41.48;99208.91;5092091;28;20256;-68
2021/12/02 08:32:01;;;;;;;25.17;14.80;;;;;;;14.74;50.56;99188.91;5092073;28;20192;-68
2021/12/02 08:34:27;;;;;;;26.20;19.53;;;;;;;15.12;41.55;99200.00;5091548;28;20631;-70
2021/12/02 08:36:56;;;;;;;34.07;20.30;;;;;;;15.08;41.48;99196.16;5082691;28;20646;-71
2021/12/02 08:39:25;;;;;;;28.77;18.90;;;;;;;15.12;40.96;99197.31;5071682;28;20207;-72
2021/12/02 08:41:54;;;;;;;25.40;18.03;;;;;;;15.20;40.89;99186.25;5071145;28;20192;-71
2021/12/02 08:44:22;;;;;;;29.40;17.97;;;;;;;15.40;41.43;99196.66;5078641;28;20272;-70
2021/12/02 08:46:49;;;;;;;28.23;18.03;;;;;;;15.55;40.87;99195.13;5091471;28;20231;-71
2021/12/02 08:49:17;;;;;;;25.77;16.40;;;;;;;15.73;40.53;99181.56;5087895;28;20279;-69
2021/12/02 08:51:44;;;;;;;24.50;15.70;;;;;;;15.90;39.38;99190.50;5091407;28;20203;-69
2021/12/02 08:54:12;;;;;;;24.63;15.47;;;;;;;16.01;38.74;99178.16;5091509;28;20195;-70
2021/12/02 08:56:40;;;;;;;24.83;16.63;;;;;;;16.08;38.13;99188.72;5091568;28;20284;-72
2021/12/02 08:59:06;;;;;;;19.33;15.00;;;;;;;16.17;38.70;99171.19;5091267;28;20249;-71
2021/12/02 09:01:34;;;;;;;29.05;18.05;;;;;;;16.27;37.49;99171.38;5088051;28;20430;-72
2021/12/02 09:04:02;;;;;;;26.10;17.93;;;;;;;16.19;38.08;99166.41;5073885;28;20675;-71
2021/12/02 09:06:29;;;;;;;27.97;17.23;;;;;;;16.04;37.86;99160.78;5074678;28;20226;-71
2021/12/02 09:08:58;;;;;;;25.30;15.93;;;;;;;15.80;38.75;99150.13;5082106;28;20195;-75
2021/12/02 09:11:27;;;;;;;22.57;16.27;;;;;;;16.02;39.56;99144.94;5093073;28;20245;-72
2021/12/02 09:13:57;;;;;;;70.23;19.33;;;;;;;16.06;39.29;99150.63;5074638;28;20199;-74
2021/12/02 09:16:24;;;;;;;30.80;18.60;;;;;;;15.97;38.85;99149.38;5074665;28;20328;-72
2021/12/02 09:18:50;;;;;;;35.00;19.77;;;;;;;15.84;39.03;99140.56;5081838;28;20184;-72
2021/12/02 09:21:17;;;;;;;33.03;19.80;;;;;;;15.96;39.05;99134.38;5094604;28;20195;-71
2021/12/02 09:23:44;;;;;;;27.83;19.30;;;;;;;16.09;38.10;99142.13;5094863;28;20252;-73
2021/12/02 09:26:10;;;;;;;32.00;18.67;;;;;;;15.94;38.43;99134.59;5093915;28;20231;-71
2021/12/02 09:28:39;;;;;;;29.50;18.70;;;;;;;15.90;38.52;99128.88;5094720;28;20195;-71
2021/12/02 09:31:05;;;;;;;23.37;17.37;;;;;;;15.93;39.49;99128.41;5094777;28;20195;-70
2021/12/02 09:33:32;;;;;;;19.87;15.70;;;;;;;16.02;38.38;99124.28;5094366;28;20195;-71
2021/12/02 09:35:59;;;;;;;26.43;18.13;;;;;;;15.62;38.70;99112.81;5093810;28;20284;-72
2021/12/02 09:38:25;;;;;;;22.83;15.77;;;;;;;15.70;44.63;99109.78;5074399;28;20344;-73
2021/12/02 09:40:52;;;;;;;32.10;17.97;;;;;;;15.83;38.80;99112.16;5079582;28;20233;-73
2021/12/02 09:43:19;;;;;;;27.83;18.80;;;;;;;15.80;38.62;99107.28;5094422;28;20203;-74
2021/12/02 09:45:47;;;;;;;25.03;16.33;;;;;;;15.75;38.63;99112.53;5093660;28;20256;-74
2021/12/02 09:48:13;;;;;;;28.13;18.80;;;;;;;15.75;38.38;99109.88;5083493;28;20196;-73
2021/12/02 09:50:50;;;;;;;33.53;17.77;;;;;;;15.63;38.45;99101.06;5089672;28;20206;-73
2021/12/02 09:53:20;;;;;;;28.30;18.60;;;;;;;15.46;38.94;99102.84;5104493;28;20247;-73
2021/12/02 09:55:52;;;;;;;40.60;19.33;;;;;;;15.39;39.84;99099.50;5106730;28;20289;-73
2021/12/02 09:58:22;;;;;;;52.00;21.17;;;;;;;15.37;40.31;99090.91;5103260;28;20191;-74
2021/12/02 10:00:55;;;;;;;43.73;21.00;;;;;;;15.43;40.37;99073.88;5102327;28;20191;-76
2021/12/02 10:03:28;;;;;;;35.47;18.37;;;;;;;15.49;39.56;99066.78;5095562;28;20252;-78
2021/12/02 10:06:03;;;;;;;30.40;17.97;;;;;;;15.60;39.52;99069.41;5095257;28;20199;-74
2021/12/02 10:08:35;;;;;;;33.57;19.30;;;;;;;15.72;39.13;99069.34;5097946;28;20187;-77
2021/12/02 10:11:04;;;;;;;27.87;19.17;;;;;;;15.75;39.06;99058.97;5094706;28;20194;-78
2021/12/02 10:13:37;;;;;;;37.67;19.77;;;;;;;15.76;39.36;99051.75;5074924;28;20196;-77
2021/12/02 10:16:10;;;;;;;32.30;18.73;;;;;;;15.75;39.01;99042.91;5073504;28;20218;-80
2021/12/02 10:18:48;;;;;;;35.73;19.93;;;;;;;15.82;39.02;99043.56;5079485;28;20184;-80
2021/12/02 10:21:22;;;;;;;29.30;20.23;;;;;;;15.42;39.57;99036.63;5094012;28;20269;-78
2021/12/02 10:23:49;;;;;;;31.20;19.43;;;;;;;15.22;40.27;99039.69;5093990;28;20183;-82
2021/12/02 10:26:18;;;;;;;32.93;18.30;;;;;;;15.23;40.04;99027.94;5090127;28;20304;-81
2021/12/02 10:28:47;;;;;;;21.63;13.47;;;;;;;15.38;39.19;99025.59;5083497;28;20204;-75
2021/12/02 10:31:21;;;;;;;24.87;15.83;;;;;;;15.32;38.88;99018.47;5073002;28;20684;-81
2021/12/02 10:33:51;;;;;;;15.23;11.90;;;;;;;15.37;38.42;99013.28;5072520;28;20192;-77
2021/12/02 10:36:31;;;;;;;17.30;10.13;;;;;;;15.29;37.70;99002.94;5072886;28;20207;-79
2021/12/02 10:39:00;;;;;;;17.00;11.87;;;;;;;15.41;38.15;99003.69;5072697;28;20184;-83
2021/12/02 10:41:30;;;;;;;15.00;11.70;;;;;;;15.40;37.94;99003.97;5082101;28;20194;-82
2021/12/02 10:44:12;;;;;;;17.50;14.57;;;;;;;15.45;38.74;99010.19;5109350;28;20264;-80
2021/12/02 10:46:51;;;;;;;19.13;13.97;;;;;;;15.56;38.78;99004.00;5093625;28;20191;-79
2021/12/02 10:49:19;;;;;;;22.87;14.10;;;;;;;15.62;38.45;99008.41;5090550;28;20226;-83
2021/12/02 10:51:50;;;;;;;21.53;14.20;;;;;;;15.71;38.66;99006.97;5107938;28;20203;-79
2021/12/02 10:54:19;;;;;;;23.30;15.47;;;;;;;15.84;38.30;98998.63;5113730;28;20189;-80
2021/12/02 10:56:48;;;;;;;20.10;14.50;;;;;;;15.67;38.92;98989.75;5111668;28;20762;-79
2021/12/02 10:59:37;;;;;;;21.53;14.87;;;;;;;15.73;39.28;98983.41;5108216;28;20957;-78
2021/12/02 11:02:08;;;;;;;19.77;13.53;;;;;;;15.76;39.05;98976.75;5072777;28;20192;-79
2021/12/02 11:04:38;;;;;;;18.67;13.43;;;;;;;15.74;39.09;98971.69;5090828;28;20624;-80
2021/12/02 11:07:10;;;;;;;18.10;13.50;;;;;;;15.79;39.00;98977.13;5092573;28;20209;-82
2021/12/02 11:09:37;;;;;;;26.03;12.97;;;;;;;15.76;39.45;98977.59;5090934;28;20191;-80
2021/12/02 11:12:25;;;;;;;19.40;13.17;;;;;;;15.78;39.76;98966.63;5082948;28;20582;-80
2021/12/02 11:15:02;;;;;;;21.70;13.83;;;;;;;15.73;39.83;98963.88;5071975;28;20246;-82
2021/12/02 11:17:33;;;;;;;19.73;13.77;;;;;;;15.67;40.20;98962.97;5072150;28;20219;-77
2021/12/02 11:20:02;;;;;;;25.07;13.80;;;;;;;15.64;39.86;98960.78;5076568;28;20748;-79
2021/12/02 11:22:30;;;;;;;16.73;13.40;;;;;;;15.59;40.54;98959.88;5092583;28;20202;-77
2021/12/02 11:24:58;;;;;;;21.70;13.67;;;;;;;15.61;41.04;98961.25;5092467;28;20654;-78
2021/12/02 11:27:27;;;;;;;19.50;13.73;;;;;;;15.64;40.86;98966.13;5092281;28;20227;-81
2021/12/02 11:30:00;;;;;;;19.57;12.70;;;;;;;15.56;41.10;98955.81;5093033;28;20199;-83
2021/12/02 11:32:32;;;;;;;10.73;9.13;;;;;;;15.58;52.86;98931.47;5092847;28;20273;-73